Wetterdaten: aktuell Donnerstag, 14.12.2017 08:00
Datum Zeit Temp. A. Feuchte A. Luftdruck Regen Wind Richtung Richtung Windchill Windben
14.12.2017 08:00 4,5 C 84 % 984,1 hPa 0,0 l/m 9,0 km/h S 180 2,3 C 14,2 km/h
14.12.2017 07:00 4,4 C 84 % 984,4 hPa 0,0 l/m 8,2 km/h S-SW 202 2,8 C 15,0 km/h
14.12.2017 06:00 4,2 C 85 % 984,6 hPa 0,0 l/m 12,8 km/h S-SW 202 -0,7 C 26,6 km/h
14.12.2017 05:32 4,0 C 85 % 984,4 hPa 0,0 l/m 11,5 km/h S 180 -0,1 C 19,3 km/h
14.12.2017 05:00 4,0 C 85 % 984,4 hPa 0,0 l/m 11,5 km/h S 180 -0,1 C 19,3 km/h
14.12.2017 04:00 3,7 C 83 % 984,6 hPa 0,0 l/m 17,4 km/h W-SW 247 -3,7 C 43,0 km/h
14.12.2017 03:00 4,1 C 78 % 985,1 hPa 0,0 l/m 16,1 km/h S 180 -2,6 C 39,6 km/h
14.12.2017 02:00 3,4 C 77 % 986,7 hPa 0,0 l/m 16,5 km/h S 180 -3,6 C 35,2 km/h
14.12.2017 01:00 2,8 C 77 % 988,1 hPa 0,0 l/m 11,9 km/h O 90 -1,7 C 31,9 km/h
14.12.2017 00:00 2,3 C 76 % 989,8 hPa 0,0 l/m 11,9 km/h S 180 -2,3 C 16,2 km/h
13.12.2017 23:00 2,7 C 76 % 991,7 hPa 0,0 l/m 14,2 km/h S 180 -3,3 C 13,0 km/h
13.12.2017 22:00 3,2 C 74 % 993,4 hPa 0,0 l/m 18,8 km/h S-SW 202 -5,0 C 52,4 km/h
13.12.2017 21:00 4,0 C 64 % 994,2 hPa 0,0 l/m 17,8 km/h S-SO 157 -3,5 C 21,0 km/h
13.12.2017 20:00 4,1 C 64 % 995,1 hPa 0,0 l/m 18,6 km/h S 180 -3,7 C 43,0 km/h
13.12.2017 19:00 3,3 C 69 % 996,5 hPa 0,0 l/m 14,9 km/h SO 135 -2,9 C 24,9 km/h
13.12.2017 18:00 3,2 C 71 % 997,9 hPa 0,0 l/m 17,6 km/h S 180 -4,4 C 21,5 km/h
13.12.2017 17:00 2,8 C 74 % 999,5 hPa 0,0 l/m 14,6 km/h S 180 -3,4 C 18,8 km/h
13.12.2017 16:00 2,8 C 74 % 1001,1 hPa 0,0 l/m 13,2 km/h SW 225 -2,5 C 20,0 km/h
13.12.2017 15:00 3,5 C 73 % 1002,7 hPa 0,0 l/m 11,9 km/h S 180 -0,9 C 14,7 km/h
13.12.2017 14:00 4,1 C 71 % 1003,8 hPa 0,0 l/m 13,0 km/h SW 225 -0,9 C 42,7 km/h
13.12.2017 13:00 4,0 C 70 % 1004,7 hPa 0,0 l/m 10,7 km/h S 180 0,5 C 19,6 km/h
13.12.2017 12:00 3,8 C 71 % 1005,6 hPa 0,0 l/m 11,9 km/h SO 135 -0,6 C 32,3 km/h
13.12.2017 11:00 2,8 C 73 % 1006,2 hPa 0,0 l/m 10,7 km/h S-SW 202 -0,9 C 28,7 km/h
13.12.2017 10:00 1,8 C 76 % 1006,5 hPa 0,0 l/m 11,1 km/h S-SW 202 -2,3 C 25,6 km/h
13.12.2017 09:00 0,7 C 80 % 1006,9 hPa 0,0 l/m 6,9 km/h S 180 0,2 C 16,7 km/h
_ Min-Zeit 09:00 20:00 08:00 - 09:00 - - 22:00 23:00
Minimum _ 0,7 C 64 % 984,1 hPa - 6,9 km/h - - -5,0 C 13,0 km/h
_ Max-Zeit 08:00 05:00 09:00 09:00 22:00 - - 07:00 22:00
Maximum _ 4,5 C 85 % 1006,9 hPa 0,0 l/m 18,8 km/h
S-SW
- - 2,8 C 52,4 km/h
S-SW
Durchschnitt _ 3,2 C 76 % 995,4 hPa #0,0 l/m 13,1 km/h S - -1,7 C 25,9 km/h